Danvers, Illinois
Current Conditions -  °F | °C
As of 6:32 PM on Sunday 21 Dec 2014 (Local Time) from KBMI Reporting Station
Scattered Clouds Scattered Clouds  
Wind Chill: 25°   Ceiling: Unl
Heat Index: 34°   Visibility: 10mi
Dew Point: 30°   Wind: 13mph
Humidity: 87%   Direction: 140°SE
Pressure: 30.04"   Gusts: NA
Location:  40.53°N, 89.18°W
Report Text: KBMI 220032Z 14011KT 10SM SCT026 01/M01 A3004 RMK AO2
Loading
Personal Weather Stations






























Interactive Weather Map New forecast layout! Learn more

10-Day Weather Forecast

Advertisements
Track Severe Weather on mobile